sensor_id;sensor_type;location;lat;lon;timestamp;temperature;humidity
20744;DHT22;56303;52.160;-0.428;2023-03-01T00:01:05;5.50;99.90
20744;DHT22;56303;52.160;-0.428;2023-03-01T00:03:32;5.40;99.90
20744;DHT22;56303;52.160;-0.428;2023-03-01T00:06:00;5.50;99.90
20744;DHT22;56303;52.160;-0.428;2023-03-01T00:08:27;5.60;99.90
20744;DHT22;56303;52.160;-0.428;2023-03-01T00:13:31;5.70;99.90
20744;DHT22;56303;52.160;-0.428;2023-03-01T00:15:58;5.70;99.90
20744;DHT22;56303;52.160;-0.428;2023-03-01T00:18:24;5.50;99.90
20744;DHT22;56303;52.160;-0.428;2023-03-01T00:20:53;5.60;99.90
20744;DHT22;56303;52.160;-0.428;2023-03-01T00:23:21;5.50;99.90
20744;DHT22;56303;52.160;-0.428;2023-03-01T00:25:48;5.40;99.90
20744;DHT22;56303;52.160;-0.428;2023-03-01T00:28:16;5.30;99.90
20744;DHT22;56303;52.160;-0.428;2023-03-01T00:30:43;5.30;99.90
20744;DHT22;56303;52.160;-0.428;2023-03-01T00:33:10;5.40;99.90
20744;DHT22;56303;52.160;-0.428;2023-03-01T00:35:37;5.30;99.90
20744;DHT22;56303;52.160;-0.428;2023-03-01T00:38:04;5.20;99.90
20744;DHT22;56303;52.160;-0.428;2023-03-01T00:40:34;5.20;99.90
20744;DHT22;56303;52.160;-0.428;2023-03-01T00:43:02;5.30;99.90
20744;DHT22;56303;52.160;-0.428;2023-03-01T00:45:29;5.30;99.90
20744;DHT22;56303;52.160;-0.428;2023-03-01T00:47:57;5.20;99.90
20744;DHT22;56303;52.160;-0.428;2023-03-01T00:50:25;5.30;99.90
20744;DHT22;56303;52.160;-0.428;2023-03-01T00:52:53;5.50;99.90
20744;DHT22;56303;52.160;-0.428;2023-03-01T00:55:23;5.60;99.90
20744;DHT22;56303;52.160;-0.428;2023-03-01T00:57:52;5.70;99.90
20744;DHT22;56303;52.160;-0.428;2023-03-01T01:00:19;5.50;99.90
20744;DHT22;56303;52.160;-0.428;2023-03-01T01:02:46;5.40;99.90
20744;DHT22;56303;52.160;-0.428;2023-03-01T01:05:16;5.10;99.90
20744;DHT22;56303;52.160;-0.428;2023-03-01T01:07:54;5.30;99.90
20744;DHT22;56303;52.160;-0.428;2023-03-01T01:10:21;5.60;99.90
20744;DHT22;56303;52.160;-0.428;2023-03-01T01:12:48;5.70;99.90
20744;DHT22;56303;52.160;-0.428;2023-03-01T01:15:15;5.70;99.90
20744;DHT22;56303;52.160;-0.428;2023-03-01T01:17:43;5.70;99.90
20744;DHT22;56303;52.160;-0.428;2023-03-01T01:20:10;5.60;99.90
20744;DHT22;56303;52.160;-0.428;2023-03-01T01:22:37;5.70;99.90
20744;DHT22;56303;52.160;-0.428;2023-03-01T01:25:05;5.70;99.90
20744;DHT22;56303;52.160;-0.428;2023-03-01T01:27:32;6.00;99.90
20744;DHT22;56303;52.160;-0.428;2023-03-01T01:29:59;6.40;99.90
20744;DHT22;56303;52.160;-0.428;2023-03-01T01:32:26;6.10;99.90
20744;DHT22;56303;52.160;-0.428;2023-03-01T01:34:53;6.00;99.90
20744;DHT22;56303;52.160;-0.428;2023-03-01T01:37:20;6.00;99.90
20744;DHT22;56303;52.160;-0.428;2023-03-01T01:39:47;5.90;99.90
20744;DHT22;56303;52.160;-0.428;2023-03-01T01:42:18;6.00;99.90
20744;DHT22;56303;52.160;-0.428;2023-03-01T01:44:48;6.20;99.90
20744;DHT22;56303;52.160;-0.428;2023-03-01T01:47:18;6.20;99.90
20744;DHT22;56303;52.160;-0.428;2023-03-01T01:49:49;6.10;99.90
20744;DHT22;56303;52.160;-0.428;2023-03-01T01:52:24;6.10;99.90
20744;DHT22;56303;52.160;-0.428;2023-03-01T01:55:02;6.10;99.90
20744;DHT22;56303;52.160;-0.428;2023-03-01T01:57:34;6.10;99.90
20744;DHT22;56303;52.160;-0.428;2023-03-01T02:00:10;6.40;99.90
20744;DHT22;56303;52.160;-0.428;2023-03-01T02:02:39;6.30;99.90
20744;DHT22;56303;52.160;-0.428;2023-03-01T02:07:59;6.60;99.90
20744;DHT22;56303;52.160;-0.428;2023-03-01T02:10:28;6.60;99.90
20744;DHT22;56303;52.160;-0.428;2023-03-01T02:12:56;6.50;99.90
20744;DHT22;56303;52.160;-0.428;2023-03-01T02:15:23;6.50;99.90
20744;DHT22;56303;52.160;-0.428;2023-03-01T02:17:50;6.40;99.90
20744;DHT22;56303;52.160;-0.428;2023-03-01T02:20:28;7.20;99.90
20744;DHT22;56303;52.160;-0.428;2023-03-01T02:22:58;6.60;99.90
20744;DHT22;56303;52.160;-0.428;2023-03-01T02:25:39;6.90;99.90
20744;DHT22;56303;52.160;-0.428;2023-03-01T02:30:47;6.90;99.90
20744;DHT22;56303;52.160;-0.428;2023-03-01T02:33:36;6.90;99.90
20744;DHT22;56303;52.160;-0.428;2023-03-01T02:36:06;7.10;99.90
20744;DHT22;56303;52.160;-0.428;2023-03-01T02:38:33;7.00;99.90
20744;DHT22;56303;52.160;-0.428;2023-03-01T02:41:03;6.90;99.90
20744;DHT22;56303;52.160;-0.428;2023-03-01T02:43:33;6.70;99.90
20744;DHT22;56303;52.160;-0.428;2023-03-01T02:46:07;6.70;99.90
20744;DHT22;56303;52.160;-0.428;2023-03-01T02:48:56;6.90;99.90
20744;DHT22;56303;52.160;-0.428;2023-03-01T02:54:08;6.80;99.90
20744;DHT22;56303;52.160;-0.428;2023-03-01T02:56:38;6.80;99.90
20744;DHT22;56303;52.160;-0.428;2023-03-01T02:59:06;7.00;99.90
20744;DHT22;56303;52.160;-0.428;2023-03-01T03:01:33;6.90;99.90
20744;DHT22;56303;52.160;-0.428;2023-03-01T03:04:11;6.80;99.90
20744;DHT22;56303;52.160;-0.428;2023-03-01T03:06:48;6.60;99.90
20744;DHT22;56303;52.160;-0.428;2023-03-01T03:09:16;7.00;99.90
20744;DHT22;56303;52.160;-0.428;2023-03-01T03:11:44;6.90;99.90
20744;DHT22;56303;52.160;-0.428;2023-03-01T03:14:13;7.10;99.90
20744;DHT22;56303;52.160;-0.428;2023-03-01T03:16:42;7.00;99.90
20744;DHT22;56303;52.160;-0.428;2023-03-01T03:19:10;6.60;99.90
20744;DHT22;56303;52.160;-0.428;2023-03-01T03:21:37;6.50;99.90
20744;DHT22;56303;52.160;-0.428;2023-03-01T03:24:04;6.40;99.90
20744;DHT22;56303;52.160;-0.428;2023-03-01T03:26:32;6.20;99.90
20744;DHT22;56303;52.160;-0.428;2023-03-01T03:28:59;6.00;99.90
20744;DHT22;56303;52.160;-0.428;2023-03-01T03:31:26;6.00;99.90
20744;DHT22;56303;52.160;-0.428;2023-03-01T03:33:54;7.60;99.90
20744;DHT22;56303;52.160;-0.428;2023-03-01T03:36:23;6.20;99.90
20744;DHT22;56303;52.160;-0.428;2023-03-01T03:38:50;6.10;99.90
20744;DHT22;56303;52.160;-0.428;2023-03-01T03:41:18;6.30;99.90
20744;DHT22;56303;52.160;-0.428;2023-03-01T03:43:45;6.30;99.90
20744;DHT22;56303;52.160;-0.428;2023-03-01T03:46:12;6.30;99.90
20744;DHT22;56303;52.160;-0.428;2023-03-01T03:48:44;6.80;99.90
20744;DHT22;56303;52.160;-0.428;2023-03-01T03:51:13;6.70;99.90
20744;DHT22;56303;52.160;-0.428;2023-03-01T03:53:41;6.60;99.90
20744;DHT22;56303;52.160;-0.428;2023-03-01T03:56:09;6.60;99.90
20744;DHT22;56303;52.160;-0.428;2023-03-01T03:58:37;6.50;99.90
20744;DHT22;56303;52.160;-0.428;2023-03-01T04:01:04;6.40;99.90
20744;DHT22;56303;52.160;-0.428;2023-03-01T04:03:32;6.10;99.90
20744;DHT22;56303;52.160;-0.428;2023-03-01T04:06:00;6.30;99.90
20744;DHT22;56303;52.160;-0.428;2023-03-01T04:08:28;6.30;99.90
20744;DHT22;56303;52.160;-0.428;2023-03-01T04:11:02;6.20;99.90
20744;DHT22;56303;52.160;-0.428;2023-03-01T04:13:50;6.60;99.90
20744;DHT22;56303;52.160;-0.428;2023-03-01T04:16:17;6.40;99.90
20744;DHT22;56303;52.160;-0.428;2023-03-01T04:18:45;6.20;99.90
20744;DHT22;56303;52.160;-0.428;2023-03-01T04:21:12;6.20;99.90
20744;DHT22;56303;52.160;-0.428;2023-03-01T04:23:40;6.20;99.90
20744;DHT22;56303;52.160;-0.428;2023-03-01T04:26:07;6.20;99.90
20744;DHT22;56303;52.160;-0.428;2023-03-01T04:28:40;5.90;99.90
20744;DHT22;56303;52.160;-0.428;2023-03-01T04:31:11;6.00;99.90
20744;DHT22;56303;52.160;-0.428;2023-03-01T04:33:52;6.00;99.90
20744;DHT22;56303;52.160;-0.428;2023-03-01T04:36:24;6.10;99.90
20744;DHT22;56303;52.160;-0.428;2023-03-01T04:38:55;6.10;99.90
20744;DHT22;56303;52.160;-0.428;2023-03-01T04:41:23;6.10;99.90
20744;DHT22;56303;52.160;-0.428;2023-03-01T04:43:50;6.20;99.90
20744;DHT22;56303;52.160;-0.428;2023-03-01T04:46:21;6.10;99.90
20744;DHT22;56303;52.160;-0.428;2023-03-01T04:48:48;5.90;99.90
20744;DHT22;56303;52.160;-0.428;2023-03-01T04:51:16;6.20;99.90
20744;DHT22;56303;52.160;-0.428;2023-03-01T04:53:44;6.20;99.90
20744;DHT22;56303;52.160;-0.428;2023-03-01T04:56:11;6.10;99.90
20744;DHT22;56303;52.160;-0.428;2023-03-01T04:58:41;6.10;99.90
20744;DHT22;56303;52.160;-0.428;2023-03-01T05:01:13;6.20;99.90
20744;DHT22;56303;52.160;-0.428;2023-03-01T05:03:44;5.90;99.90
20744;DHT22;56303;52.160;-0.428;2023-03-01T05:06:12;5.80;99.90
20744;DHT22;56303;52.160;-0.428;2023-03-01T05:08:39;5.90;99.90
20744;DHT22;56303;52.160;-0.428;2023-03-01T05:11:07;6.00;99.90
20744;DHT22;56303;52.160;-0.428;2023-03-01T05:13:36;5.90;99.90
20744;DHT22;56303;52.160;-0.428;2023-03-01T05:16:04;6.00;99.90
20744;DHT22;56303;52.160;-0.428;2023-03-01T05:18:33;6.00;99.90
20744;DHT22;56303;52.160;-0.428;2023-03-01T05:21:11;6.50;99.90
20744;DHT22;56303;52.160;-0.428;2023-03-01T05:23:39;6.20;99.90
20744;DHT22;56303;52.160;-0.428;2023-03-01T05:26:09;6.20;99.90
20744;DHT22;56303;52.160;-0.428;2023-03-01T05:28:54;6.20;99.90
20744;DHT22;56303;52.160;-0.428;2023-03-01T05:31:25;5.70;99.90
20744;DHT22;56303;52.160;-0.428;2023-03-01T05:33:52;6.20;99.90
20744;DHT22;56303;52.160;-0.428;2023-03-01T05:36:19;5.60;99.90
20744;DHT22;56303;52.160;-0.428;2023-03-01T05:38:46;5.60;99.90
20744;DHT22;56303;52.160;-0.428;2023-03-01T05:41:14;5.90;99.90
20744;DHT22;56303;52.160;-0.428;2023-03-01T05:43:43;5.70;99.90
20744;DHT22;56303;52.160;-0.428;2023-03-01T05:46:11;5.50;99.90
20744;DHT22;56303;52.160;-0.428;2023-03-01T05:48:40;4.10;99.90
20744;DHT22;56303;52.160;-0.428;2023-03-01T05:51:07;5.60;99.90
20744;DHT22;56303;52.160;-0.428;2023-03-01T05:53:33;5.70;99.90
20744;DHT22;56303;52.160;-0.428;2023-03-01T05:56:04;5.80;99.90
20744;DHT22;56303;52.160;-0.428;2023-03-01T05:58:31;5.90;99.90
20744;DHT22;56303;52.160;-0.428;2023-03-01T06:00:58;5.90;99.90
20744;DHT22;56303;52.160;-0.428;2023-03-01T06:03:25;7.60;99.90
20744;DHT22;56303;52.160;-0.428;2023-03-01T06:05:56;6.00;99.90
20744;DHT22;56303;52.160;-0.428;2023-03-01T06:08:23;5.90;99.90
20744;DHT22;56303;52.160;-0.428;2023-03-01T06:10:55;5.90;99.90
20744;DHT22;56303;52.160;-0.428;2023-03-01T06:13:22;5.70;99.90
20744;DHT22;56303;52.160;-0.428;2023-03-01T06:15:50;5.70;99.90
20744;DHT22;56303;52.160;-0.428;2023-03-01T06:18:17;5.60;99.90
20744;DHT22;56303;52.160;-0.428;2023-03-01T06:20:44;5.70;99.90
20744;DHT22;56303;52.160;-0.428;2023-03-01T06:23:10;5.60;99.90
20744;DHT22;56303;52.160;-0.428;2023-03-01T06:25:37;5.70;99.90
20744;DHT22;56303;52.160;-0.428;2023-03-01T06:28:04;5.70;99.90
20744;DHT22;56303;52.160;-0.428;2023-03-01T06:30:31;5.60;99.90
20744;DHT22;56303;52.160;-0.428;2023-03-01T06:32:58;5.60;99.90
20744;DHT22;56303;52.160;-0.428;2023-03-01T06:35:30;5.50;99.90
20744;DHT22;56303;52.160;-0.428;2023-03-01T06:37:59;5.40;99.90
20744;DHT22;56303;52.160;-0.428;2023-03-01T06:40:26;5.50;99.90
20744;DHT22;56303;52.160;-0.428;2023-03-01T06:42:53;5.60;99.90
20744;DHT22;56303;52.160;-0.428;2023-03-01T06:45:21;5.60;99.90
20744;DHT22;56303;52.160;-0.428;2023-03-01T06:47:48;5.40;99.90
20744;DHT22;56303;52.160;-0.428;2023-03-01T06:50:15;5.30;99.90
20744;DHT22;56303;52.160;-0.428;2023-03-01T06:52:43;5.30;99.90
20744;DHT22;56303;52.160;-0.428;2023-03-01T06:55:12;5.30;99.90
20744;DHT22;56303;52.160;-0.428;2023-03-01T06:57:39;5.40;99.90
20744;DHT22;56303;52.160;-0.428;2023-03-01T07:00:07;5.20;99.90
20744;DHT22;56303;52.160;-0.428;2023-03-01T07:02:34;5.20;99.90
20744;DHT22;56303;52.160;-0.428;2023-03-01T07:05:01;5.20;99.90
20744;DHT22;56303;52.160;-0.428;2023-03-01T07:07:28;5.30;99.90
20744;DHT22;56303;52.160;-0.428;2023-03-01T07:09:58;5.30;99.90
20744;DHT22;56303;52.160;-0.428;2023-03-01T07:12:25;5.60;99.90
20744;DHT22;56303;52.160;-0.428;2023-03-01T07:14:51;5.90;99.90
20744;DHT22;56303;52.160;-0.428;2023-03-01T07:17:18;5.90;99.90
20744;DHT22;56303;52.160;-0.428;2023-03-01T07:19:45;5.80;99.90
20744;DHT22;56303;52.160;-0.428;2023-03-01T07:22:12;5.70;99.90
20744;DHT22;56303;52.160;-0.428;2023-03-01T07:24:39;7.10;99.90
20744;DHT22;56303;52.160;-0.428;2023-03-01T07:27:07;5.60;99.90
20744;DHT22;56303;52.160;-0.428;2023-03-01T07:29:33;5.50;99.90
20744;DHT22;56303;52.160;-0.428;2023-03-01T07:32:04;5.70;99.90
20744;DHT22;56303;52.160;-0.428;2023-03-01T07:34:31;5.90;99.90
20744;DHT22;56303;52.160;-0.428;2023-03-01T07:36:58;6.30;99.90
20744;DHT22;56303;52.160;-0.428;2023-03-01T07:39:25;5.90;99.90
20744;DHT22;56303;52.160;-0.428;2023-03-01T07:41:52;6.00;99.90
20744;DHT22;56303;52.160;-0.428;2023-03-01T07:44:19;6.10;99.90
20744;DHT22;56303;52.160;-0.428;2023-03-01T07:46:46;5.90;99.90
20744;DHT22;56303;52.160;-0.428;2023-03-01T07:49:13;5.70;99.90
20744;DHT22;56303;52.160;-0.428;2023-03-01T07:51:40;5.70;99.90
20744;DHT22;56303;52.160;-0.428;2023-03-01T07:54:06;5.80;99.90
20744;DHT22;56303;52.160;-0.428;2023-03-01T07:56:33;5.90;99.90
20744;DHT22;56303;52.160;-0.428;2023-03-01T07:59:00;6.00;99.90
20744;DHT22;56303;52.160;-0.428;2023-03-01T08:01:27;6.00;99.90
20744;DHT22;56303;52.160;-0.428;2023-03-01T08:03:54;5.90;99.90
20744;DHT22;56303;52.160;-0.428;2023-03-01T08:06:20;6.10;99.90
20744;DHT22;56303;52.160;-0.428;2023-03-01T08:08:47;6.00;99.90
20744;DHT22;56303;52.160;-0.428;2023-03-01T08:11:15;6.30;99.90
20744;DHT22;56303;52.160;-0.428;2023-03-01T08:13:43;6.10;99.90
20744;DHT22;56303;52.160;-0.428;2023-03-01T08:16:12;6.40;99.90
20744;DHT22;56303;52.160;-0.428;2023-03-01T08:18:40;6.10;99.90
20744;DHT22;56303;52.160;-0.428;2023-03-01T08:21:13;6.40;99.90
20744;DHT22;56303;52.160;-0.428;2023-03-01T08:23:41;6.40;99.90
20744;DHT22;56303;52.160;-0.428;2023-03-01T08:26:20;6.70;99.90
20744;DHT22;56303;52.160;-0.428;2023-03-01T08:28:48;6.50;99.90
20744;DHT22;56303;52.160;-0.428;2023-03-01T08:31:20;6.40;99.90
20744;DHT22;56303;52.160;-0.428;2023-03-01T08:33:49;6.50;99.90
20744;DHT22;56303;52.160;-0.428;2023-03-01T08:36:23;6.70;99.90
20744;DHT22;56303;52.160;-0.428;2023-03-01T08:38:51;6.70;99.90
20744;DHT22;56303;52.160;-0.428;2023-03-01T08:41:18;6.70;99.90
20744;DHT22;56303;52.160;-0.428;2023-03-01T08:43:45;6.60;99.90
20744;DHT22;56303;52.160;-0.428;2023-03-01T08:46:13;6.70;99.90
20744;DHT22;56303;52.160;-0.428;2023-03-01T08:48:40;6.80;99.90
20744;DHT22;56303;52.160;-0.428;2023-03-01T08:51:17;6.60;99.90
20744;DHT22;56303;52.160;-0.428;2023-03-01T08:53:45;6.60;99.90
20744;DHT22;56303;52.160;-0.428;2023-03-01T08:56:12;6.80;99.90
20744;DHT22;56303;52.160;-0.428;2023-03-01T08:58:39;6.80;99.90
20744;DHT22;56303;52.160;-0.428;2023-03-01T09:01:08;6.60;99.90
20744;DHT22;56303;52.160;-0.428;2023-03-01T09:03:35;6.40;99.90
20744;DHT22;56303;52.160;-0.428;2023-03-01T09:06:04;6.30;99.90
20744;DHT22;56303;52.160;-0.428;2023-03-01T09:08:35;6.60;99.90
20744;DHT22;56303;52.160;-0.428;2023-03-01T09:11:03;6.50;99.90
20744;DHT22;56303;52.160;-0.428;2023-03-01T09:13:32;4.90;99.90
20744;DHT22;56303;52.160;-0.428;2023-03-01T09:16:01;6.60;99.90
20744;DHT22;56303;52.160;-0.428;2023-03-01T09:18:29;6.50;99.90
20744;DHT22;56303;52.160;-0.428;2023-03-01T09:21:13;6.70;99.90
20744;DHT22;56303;52.160;-0.428;2023-03-01T09:23:45;6.80;99.90
20744;DHT22;56303;52.160;-0.428;2023-03-01T09:26:17;6.90;99.90
20744;DHT22;56303;52.160;-0.428;2023-03-01T09:28:46;7.00;99.90
20744;DHT22;56303;52.160;-0.428;2023-03-01T09:31:15;7.20;99.90
20744;DHT22;56303;52.160;-0.428;2023-03-01T09:33:45;6.90;99.90
20744;DHT22;56303;52.160;-0.428;2023-03-01T09:36:14;6.90;99.90
20744;DHT22;56303;52.160;-0.428;2023-03-01T09:38:42;6.80;99.90
20744;DHT22;56303;52.160;-0.428;2023-03-01T09:43:52;6.70;99.90
20744;DHT22;56303;52.160;-0.428;2023-03-01T09:46:24;7.10;99.90
20744;DHT22;56303;52.160;-0.428;2023-03-01T09:48:55;7.00;99.90
20744;DHT22;56303;52.160;-0.428;2023-03-01T09:51:30;7.50;99.90
20744;DHT22;56303;52.160;-0.428;2023-03-01T09:53:58;7.60;99.90
20744;DHT22;56303;52.160;-0.428;2023-03-01T09:56:41;7.70;99.90
20744;DHT22;56303;52.160;-0.428;2023-03-01T09:59:51;7.60;99.90
20744;DHT22;56303;52.160;-0.428;2023-03-01T10:02:52;7.90;99.90
20744;DHT22;56303;52.160;-0.428;2023-03-01T10:08:41;7.70;99.90
20744;DHT22;56303;52.160;-0.428;2023-03-01T10:11:21;7.80;99.90
20744;DHT22;56303;52.160;-0.428;2023-03-01T10:16:34;7.70;99.90
20744;DHT22;56303;52.160;-0.428;2023-03-01T10:19:04;7.60;99.90
20744;DHT22;56303;52.160;-0.428;2023-03-01T10:21:36;7.60;99.90
20744;DHT22;56303;52.160;-0.428;2023-03-01T10:24:16;7.50;99.90
20744;DHT22;56303;52.160;-0.428;2023-03-01T10:26:57;7.60;99.90
20744;DHT22;56303;52.160;-0.428;2023-03-01T10:29:46;7.60;99.90
20744;DHT22;56303;52.160;-0.428;2023-03-01T10:32:15;7.80;99.90
20744;DHT22;56303;52.160;-0.428;2023-03-01T10:34:43;7.80;99.90
20744;DHT22;56303;52.160;-0.428;2023-03-01T10:37:20;7.30;99.90
20744;DHT22;56303;52.160;-0.428;2023-03-01T10:40:05;7.20;99.90
20744;DHT22;56303;52.160;-0.428;2023-03-01T10:42:39;7.30;99.90
20744;DHT22;56303;52.160;-0.428;2023-03-01T10:45:38;7.40;99.90
20744;DHT22;56303;52.160;-0.428;2023-03-01T10:48:21;7.00;99.90
20744;DHT22;56303;52.160;-0.428;2023-03-01T10:51:06;6.90;99.90
20744;DHT22;56303;52.160;-0.428;2023-03-01T10:53:41;7.00;99.90
20744;DHT22;56303;52.160;-0.428;2023-03-01T10:56:09;7.40;99.90
20744;DHT22;56303;52.160;-0.428;2023-03-01T10:58:38;7.20;99.90
20744;DHT22;56303;52.160;-0.428;2023-03-01T11:03:43;7.80;99.90
20744;DHT22;56303;52.160;-0.428;2023-03-01T11:08:44;8.40;99.90
20744;DHT22;56303;52.160;-0.428;2023-03-01T11:11:22;8.30;99.90
20744;DHT22;56303;52.160;-0.428;2023-03-01T11:13:58;8.30;99.90
20744;DHT22;56303;52.160;-0.428;2023-03-01T11:16:33;8.80;99.90
20744;DHT22;56303;52.160;-0.428;2023-03-01T11:19:20;9.00;99.90
20744;DHT22;56303;52.160;-0.428;2023-03-01T11:22:03;8.40;99.90
20744;DHT22;56303;52.160;-0.428;2023-03-01T11:24:45;8.10;99.90
20744;DHT22;56303;52.160;-0.428;2023-03-01T11:27:38;7.90;99.90
20744;DHT22;56303;52.160;-0.428;2023-03-01T11:30:27;8.00;99.90
20744;DHT22;56303;52.160;-0.428;2023-03-01T11:33:04;8.00;99.90
20744;DHT22;56303;52.160;-0.428;2023-03-01T11:35:34;8.40;99.90
20744;DHT22;56303;52.160;-0.428;2023-03-01T11:38:23;8.90;99.90
20744;DHT22;56303;52.160;-0.428;2023-03-01T11:43:47;8.90;99.90
20744;DHT22;56303;52.160;-0.428;2023-03-01T12:03:28;9.20;99.90
20744;DHT22;56303;52.160;-0.428;2023-03-01T12:08:57;9.70;99.90
20744;DHT22;56303;52.160;-0.428;2023-03-01T12:20:02;9.10;99.90
20744;DHT22;56303;52.160;-0.428;2023-03-01T12:22:56;9.30;99.90
20744;DHT22;56303;52.160;-0.428;2023-03-01T12:25:48;8.90;99.90
20744;DHT22;56303;52.160;-0.428;2023-03-01T12:33:45;8.20;99.90
20744;DHT22;56303;52.160;-0.428;2023-03-01T12:36:44;8.40;99.90
20744;DHT22;56303;52.160;-0.428;2023-03-01T12:45:05;8.60;99.90
20744;DHT22;56303;52.160;-0.428;2023-03-01T12:48:43;8.50;99.90
20744;DHT22;56303;52.160;-0.428;2023-03-01T12:50:52;8.40;99.90
20744;DHT22;56303;52.160;-0.428;2023-03-01T12:55:54;8.60;99.90
20744;DHT22;56303;52.160;-0.428;2023-03-01T13:18:01;9.70;99.90
20744;DHT22;56303;52.160;-0.428;2023-03-01T13:20:46;9.00;99.90
20744;DHT22;56303;52.160;-0.428;2023-03-01T13:28:47;11.60;99.90
20744;DHT22;56303;52.160;-0.428;2023-03-01T13:33:59;11.70;99.90
20744;DHT22;56303;52.160;-0.428;2023-03-01T13:41:50;10.80;99.90
20744;DHT22;56303;52.160;-0.428;2023-03-01T13:46:56;9.50;99.90
20744;DHT22;56303;52.160;-0.428;2023-03-01T13:49:43;9.40;99.90
20744;DHT22;56303;52.160;-0.428;2023-03-01T13:52:43;9.60;99.90
20744;DHT22;56303;52.160;-0.428;2023-03-01T13:57:53;10.40;99.90
20744;DHT22;56303;52.160;-0.428;2023-03-01T14:00:32;10.60;99.90
20744;DHT22;56303;52.160;-0.428;2023-03-01T14:05:38;10.30;99.90
20744;DHT22;56303;52.160;-0.428;2023-03-01T14:08:19;10.00;99.90
20744;DHT22;56303;52.160;-0.428;2023-03-01T14:13:55;9.70;99.90
20744;DHT22;56303;52.160;-0.428;2023-03-01T14:19:24;10.50;99.90
20744;DHT22;56303;52.160;-0.428;2023-03-01T14:24:33;11.00;99.90
20744;DHT22;56303;52.160;-0.428;2023-03-01T14:27:02;10.60;99.90
20744;DHT22;56303;52.160;-0.428;2023-03-01T14:29:38;10.70;99.90
20744;DHT22;56303;52.160;-0.428;2023-03-01T14:34:50;10.60;99.90
20744;DHT22;56303;52.160;-0.428;2023-03-01T14:39:53;9.50;99.90
20744;DHT22;56303;52.160;-0.428;2023-03-01T14:42:22;9.70;99.90
20744;DHT22;56303;52.160;-0.428;2023-03-01T14:44:51;9.80;99.90
20744;DHT22;56303;52.160;-0.428;2023-03-01T14:47:31;9.90;99.90
20744;DHT22;56303;52.160;-0.428;2023-03-01T14:52:38;9.30;99.90
20744;DHT22;56303;52.160;-0.428;2023-03-01T14:55:19;9.00;99.90
20744;DHT22;56303;52.160;-0.428;2023-03-01T14:57:51;8.90;99.90
20744;DHT22;56303;52.160;-0.428;2023-03-01T15:00:21;9.00;99.90
20744;DHT22;56303;52.160;-0.428;2023-03-01T15:02:50;9.00;99.90
20744;DHT22;56303;52.160;-0.428;2023-03-01T15:05:29;8.90;99.90
20744;DHT22;56303;52.160;-0.428;2023-03-01T15:08:01;9.30;99.90
20744;DHT22;56303;52.160;-0.428;2023-03-01T15:10:35;9.30;99.90
20744;DHT22;56303;52.160;-0.428;2023-03-01T15:13:35;9.40;99.90
20744;DHT22;56303;52.160;-0.428;2023-03-01T15:16:31;9.50;99.90
20744;DHT22;56303;52.160;-0.428;2023-03-01T15:19:05;9.40;99.90
20744;DHT22;56303;52.160;-0.428;2023-03-01T15:21:34;9.10;99.90
20744;DHT22;56303;52.160;-0.428;2023-03-01T15:26:58;9.10;99.90
20744;DHT22;56303;52.160;-0.428;2023-03-01T15:29:30;9.30;99.90
20744;DHT22;56303;52.160;-0.428;2023-03-01T15:32:00;8.20;99.90
20744;DHT22;56303;52.160;-0.428;2023-03-01T15:34:34;8.90;99.90
20744;DHT22;56303;52.160;-0.428;2023-03-01T15:37:06;8.80;99.90
20744;DHT22;56303;52.160;-0.428;2023-03-01T15:39:39;8.70;99.90
20744;DHT22;56303;52.160;-0.428;2023-03-01T15:47:50;8.70;99.90
20744;DHT22;56303;52.160;-0.428;2023-03-01T15:50:41;8.70;99.90
20744;DHT22;56303;52.160;-0.428;2023-03-01T15:53:12;9.50;99.90
20744;DHT22;56303;52.160;-0.428;2023-03-01T15:55:41;10.10;99.90
20744;DHT22;56303;52.160;-0.428;2023-03-01T15:58:20;10.00;99.90
20744;DHT22;56303;52.160;-0.428;2023-03-01T16:00:49;9.60;99.90
20744;DHT22;56303;52.160;-0.428;2023-03-01T16:03:28;9.60;99.90
20744;DHT22;56303;52.160;-0.428;2023-03-01T16:05:55;9.90;99.90
20744;DHT22;56303;52.160;-0.428;2023-03-01T16:08:22;9.80;99.90
20744;DHT22;56303;52.160;-0.428;2023-03-01T16:10:50;9.70;99.90
20744;DHT22;56303;52.160;-0.428;2023-03-01T16:13:18;9.30;99.90
20744;DHT22;56303;52.160;-0.428;2023-03-01T16:15:46;8.30;99.90
20744;DHT22;56303;52.160;-0.428;2023-03-01T16:18:14;8.60;99.90
20744;DHT22;56303;52.160;-0.428;2023-03-01T16:20:42;8.40;99.90
20744;DHT22;56303;52.160;-0.428;2023-03-01T16:23:11;8.50;99.90
20744;DHT22;56303;52.160;-0.428;2023-03-01T16:25:38;8.30;99.90
20744;DHT22;56303;52.160;-0.428;2023-03-01T16:28:05;8.20;99.90
20744;DHT22;56303;52.160;-0.428;2023-03-01T16:30:38;8.20;99.90
20744;DHT22;56303;52.160;-0.428;2023-03-01T16:33:06;8.30;99.90
20744;DHT22;56303;52.160;-0.428;2023-03-01T16:35:54;8.30;99.90
20744;DHT22;56303;52.160;-0.428;2023-03-01T16:38:21;8.20;99.90
20744;DHT22;56303;52.160;-0.428;2023-03-01T16:40:50;8.00;99.90
20744;DHT22;56303;52.160;-0.428;2023-03-01T16:43:18;8.00;99.90
20744;DHT22;56303;52.160;-0.428;2023-03-01T16:45:52;8.00;99.90
20744;DHT22;56303;52.160;-0.428;2023-03-01T16:48:19;8.30;99.90
20744;DHT22;56303;52.160;-0.428;2023-03-01T16:50:55;8.20;99.90
20744;DHT22;56303;52.160;-0.428;2023-03-01T16:53:22;8.40;99.90
20744;DHT22;56303;52.160;-0.428;2023-03-01T16:55:57;8.40;99.90
20744;DHT22;56303;52.160;-0.428;2023-03-01T16:58:24;7.40;99.90
20744;DHT22;56303;52.160;-0.428;2023-03-01T17:00:56;8.30;99.90
20744;DHT22;56303;52.160;-0.428;2023-03-01T17:03:24;8.50;99.90
20744;DHT22;56303;52.160;-0.428;2023-03-01T17:05:52;8.50;99.90
20744;DHT22;56303;52.160;-0.428;2023-03-01T17:08:19;8.60;99.90
20744;DHT22;56303;52.160;-0.428;2023-03-01T17:10:46;8.80;99.90
20744;DHT22;56303;52.160;-0.428;2023-03-01T17:13:13;8.50;99.90
20744;DHT22;56303;52.160;-0.428;2023-03-01T17:15:41;8.30;99.90
20744;DHT22;56303;52.160;-0.428;2023-03-01T17:18:08;8.00;99.90
20744;DHT22;56303;52.160;-0.428;2023-03-01T17:20:36;7.90;99.90
20744;DHT22;56303;52.160;-0.428;2023-03-01T17:23:03;7.90;99.90
20744;DHT22;56303;52.160;-0.428;2023-03-01T17:25:30;7.70;99.90
20744;DHT22;56303;52.160;-0.428;2023-03-01T17:27:57;7.50;99.90
20744;DHT22;56303;52.160;-0.428;2023-03-01T17:30:26;7.30;99.90
20744;DHT22;56303;52.160;-0.428;2023-03-01T17:32:53;7.20;99.90
20744;DHT22;56303;52.160;-0.428;2023-03-01T17:35:21;7.20;99.90
20744;DHT22;56303;52.160;-0.428;2023-03-01T17:37:50;7.30;99.90
20744;DHT22;56303;52.160;-0.428;2023-03-01T17:40:16;7.10;99.90
20744;DHT22;56303;52.160;-0.428;2023-03-01T17:42:46;7.10;99.90
20744;DHT22;56303;52.160;-0.428;2023-03-01T17:45:12;7.20;99.90
20744;DHT22;56303;52.160;-0.428;2023-03-01T17:47:39;7.10;99.90
20744;DHT22;56303;52.160;-0.428;2023-03-01T17:50:07;7.30;99.90
20744;DHT22;56303;52.160;-0.428;2023-03-01T17:52:34;7.20;99.90
20744;DHT22;56303;52.160;-0.428;2023-03-01T17:55:00;7.30;99.90
20744;DHT22;56303;52.160;-0.428;2023-03-01T17:57:27;8.90;99.90
20744;DHT22;56303;52.160;-0.428;2023-03-01T17:59:54;7.20;99.90
20744;DHT22;56303;52.160;-0.428;2023-03-01T18:02:21;7.00;99.90
20744;DHT22;56303;52.160;-0.428;2023-03-01T18:04:48;7.20;99.90
20744;DHT22;56303;52.160;-0.428;2023-03-01T18:07:15;7.00;99.90
20744;DHT22;56303;52.160;-0.428;2023-03-01T18:09:42;7.10;99.90